sensor_id;sensor_type;location;lat;lon;timestamp;temperature;humidity
28484;DHT22;15704;48.834;8.736;2022-10-19T00:00:21;17.00;99.90
28484;DHT22;15704;48.834;8.736;2022-10-19T00:02:46;17.00;99.90
28484;DHT22;15704;48.834;8.736;2022-10-19T00:05:12;17.00;99.90
28484;DHT22;15704;48.834;8.736;2022-10-19T00:07:37;17.00;99.90
28484;DHT22;15704;48.834;8.736;2022-10-19T00:10:04;17.00;99.90
28484;DHT22;15704;48.834;8.736;2022-10-19T00:12:29;17.00;99.90
28484;DHT22;15704;48.834;8.736;2022-10-19T00:14:55;17.00;99.90
28484;DHT22;15704;48.834;8.736;2022-10-19T00:17:21;17.00;99.90
28484;DHT22;15704;48.834;8.736;2022-10-19T00:19:46;17.00;99.90
28484;DHT22;15704;48.834;8.736;2022-10-19T00:22:12;17.00;99.90
28484;DHT22;15704;48.834;8.736;2022-10-19T00:24:37;17.00;99.90
28484;DHT22;15704;48.834;8.736;2022-10-19T00:27:03;17.00;99.90
28484;DHT22;15704;48.834;8.736;2022-10-19T00:29:29;16.90;99.90
28484;DHT22;15704;48.834;8.736;2022-10-19T00:31:54;16.90;99.90
28484;DHT22;15704;48.834;8.736;2022-10-19T00:34:20;16.90;99.90
28484;DHT22;15704;48.834;8.736;2022-10-19T00:36:45;16.90;99.90
28484;DHT22;15704;48.834;8.736;2022-10-19T00:39:14;16.90;99.90
28484;DHT22;15704;48.834;8.736;2022-10-19T00:41:43;16.90;99.90
28484;DHT22;15704;48.834;8.736;2022-10-19T00:47:00;16.90;99.90
28484;DHT22;15704;48.834;8.736;2022-10-19T00:49:32;16.90;99.90
28484;DHT22;15704;48.834;8.736;2022-10-19T00:52:04;16.90;99.90
28484;DHT22;15704;48.834;8.736;2022-10-19T00:54:31;16.90;99.90
28484;DHT22;15704;48.834;8.736;2022-10-19T00:56:58;16.90;99.90
28484;DHT22;15704;48.834;8.736;2022-10-19T00:59:25;16.90;99.90
28484;DHT22;15704;48.834;8.736;2022-10-19T01:01:52;16.90;99.90
28484;DHT22;15704;48.834;8.736;2022-10-19T01:04:22;16.90;99.90
28484;DHT22;15704;48.834;8.736;2022-10-19T01:06:49;16.80;99.90
28484;DHT22;15704;48.834;8.736;2022-10-19T01:09:15;16.80;99.90
28484;DHT22;15704;48.834;8.736;2022-10-19T01:26:11;16.80;99.90
28484;DHT22;15704;48.834;8.736;2022-10-19T01:34:14;16.80;99.90
28484;DHT22;15704;48.834;8.736;2022-10-19T01:39:48;16.80;99.90
28484;DHT22;15704;48.834;8.736;2022-10-19T01:50:18;16.80;99.90
28484;DHT22;15704;48.834;8.736;2022-10-19T01:52:47;16.80;99.90
28484;DHT22;15704;48.834;8.736;2022-10-19T01:55:15;16.80;99.90
28484;DHT22;15704;48.834;8.736;2022-10-19T01:57:46;16.60;99.90
28484;DHT22;15704;48.834;8.736;2022-10-19T02:00:14;16.70;99.90
28484;DHT22;15704;48.834;8.736;2022-10-19T02:02:52;16.70;99.90
28484;DHT22;15704;48.834;8.736;2022-10-19T02:05:20;16.70;99.90
28484;DHT22;15704;48.834;8.736;2022-10-19T02:07:55;16.70;99.90
28484;DHT22;15704;48.834;8.736;2022-10-19T02:10:23;16.70;99.90
28484;DHT22;15704;48.834;8.736;2022-10-19T02:12:49;16.70;99.90
28484;DHT22;15704;48.834;8.736;2022-10-19T02:15:18;16.70;99.90
28484;DHT22;15704;48.834;8.736;2022-10-19T02:17:47;16.70;99.90
28484;DHT22;15704;48.834;8.736;2022-10-19T02:20:14;16.70;99.90
28484;DHT22;15704;48.834;8.736;2022-10-19T02:22:40;16.70;99.90
28484;DHT22;15704;48.834;8.736;2022-10-19T02:25:07;16.70;99.90
28484;DHT22;15704;48.834;8.736;2022-10-19T02:27:33;16.70;99.90
28484;DHT22;15704;48.834;8.736;2022-10-19T02:29:59;16.70;99.90
28484;DHT22;15704;48.834;8.736;2022-10-19T02:32:25;16.70;99.90
28484;DHT22;15704;48.834;8.736;2022-10-19T02:34:51;16.70;99.90
28484;DHT22;15704;48.834;8.736;2022-10-19T02:37:17;16.70;99.90
28484;DHT22;15704;48.834;8.736;2022-10-19T02:39:43;16.70;99.90
28484;DHT22;15704;48.834;8.736;2022-10-19T02:42:19;16.70;99.90
28484;DHT22;15704;48.834;8.736;2022-10-19T02:45:34;16.70;99.90
28484;DHT22;15704;48.834;8.736;2022-10-19T02:47:49;16.80;99.90
28484;DHT22;15704;48.834;8.736;2022-10-19T02:50:18;16.70;99.90
28484;DHT22;15704;48.834;8.736;2022-10-19T02:52:43;16.80;99.90
28484;DHT22;15704;48.834;8.736;2022-10-19T02:55:09;16.80;99.90
28484;DHT22;15704;48.834;8.736;2022-10-19T02:57:35;16.80;99.90
28484;DHT22;15704;48.834;8.736;2022-10-19T03:00:02;16.80;99.90
28484;DHT22;15704;48.834;8.736;2022-10-19T03:02:28;16.80;99.90
28484;DHT22;15704;48.834;8.736;2022-10-19T03:04:54;16.80;99.90
28484;DHT22;15704;48.834;8.736;2022-10-19T03:07:21;16.80;99.90
28484;DHT22;15704;48.834;8.736;2022-10-19T03:09:47;16.80;99.90
28484;DHT22;15704;48.834;8.736;2022-10-19T03:12:13;16.80;99.90
28484;DHT22;15704;48.834;8.736;2022-10-19T03:14:39;16.80;99.90
28484;DHT22;15704;48.834;8.736;2022-10-19T03:17:05;16.90;99.90
28484;DHT22;15704;48.834;8.736;2022-10-19T03:19:31;16.90;99.90
28484;DHT22;15704;48.834;8.736;2022-10-19T03:21:56;16.90;99.90
28484;DHT22;15704;48.834;8.736;2022-10-19T03:24:22;16.80;99.90
28484;DHT22;15704;48.834;8.736;2022-10-19T03:26:48;16.90;99.90
28484;DHT22;15704;48.834;8.736;2022-10-19T03:29:14;16.90;99.90
28484;DHT22;15704;48.834;8.736;2022-10-19T03:31:39;16.90;99.90
28484;DHT22;15704;48.834;8.736;2022-10-19T03:34:05;16.90;99.90
28484;DHT22;15704;48.834;8.736;2022-10-19T03:36:36;16.90;99.90
28484;DHT22;15704;48.834;8.736;2022-10-19T03:39:05;16.90;99.90
28484;DHT22;15704;48.834;8.736;2022-10-19T03:41:33;16.90;99.90
28484;DHT22;15704;48.834;8.736;2022-10-19T03:43:59;16.90;99.90
28484;DHT22;15704;48.834;8.736;2022-10-19T03:46:25;16.90;99.90
28484;DHT22;15704;48.834;8.736;2022-10-19T03:48:51;16.90;99.90
28484;DHT22;15704;48.834;8.736;2022-10-19T03:51:25;16.90;99.90
28484;DHT22;15704;48.834;8.736;2022-10-19T03:53:53;16.90;99.90
28484;DHT22;15704;48.834;8.736;2022-10-19T03:56:21;16.90;99.90
28484;DHT22;15704;48.834;8.736;2022-10-19T03:58:48;16.90;99.90
28484;DHT22;15704;48.834;8.736;2022-10-19T04:01:20;16.90;99.90
28484;DHT22;15704;48.834;8.736;2022-10-19T04:03:46;16.90;99.90
28484;DHT22;15704;48.834;8.736;2022-10-19T04:06:14;16.90;99.90
28484;DHT22;15704;48.834;8.736;2022-10-19T04:08:41;16.90;99.90
28484;DHT22;15704;48.834;8.736;2022-10-19T04:11:11;16.90;99.90
28484;DHT22;15704;48.834;8.736;2022-10-19T04:13:37;16.90;99.90
28484;DHT22;15704;48.834;8.736;2022-10-19T04:16:04;16.90;99.90
28484;DHT22;15704;48.834;8.736;2022-10-19T04:18:29;16.90;99.90
28484;DHT22;15704;48.834;8.736;2022-10-19T04:21:00;16.90;99.90
28484;DHT22;15704;48.834;8.736;2022-10-19T04:23:27;16.90;99.90
28484;DHT22;15704;48.834;8.736;2022-10-19T04:26:01;16.90;99.90
28484;DHT22;15704;48.834;8.736;2022-10-19T04:28:27;16.90;99.90
28484;DHT22;15704;48.834;8.736;2022-10-19T04:30:53;16.90;99.90
28484;DHT22;15704;48.834;8.736;2022-10-19T04:33:18;17.00;99.90
28484;DHT22;15704;48.834;8.736;2022-10-19T04:35:44;16.90;99.90
28484;DHT22;15704;48.834;8.736;2022-10-19T04:38:09;17.00;99.90
28484;DHT22;15704;48.834;8.736;2022-10-19T04:40:35;17.00;99.90
28484;DHT22;15704;48.834;8.736;2022-10-19T04:43:02;17.00;99.90
28484;DHT22;15704;48.834;8.736;2022-10-19T04:45:27;17.00;99.90
28484;DHT22;15704;48.834;8.736;2022-10-19T04:47:53;17.00;99.90
28484;DHT22;15704;48.834;8.736;2022-10-19T04:50:21;17.00;99.90
28484;DHT22;15704;48.834;8.736;2022-10-19T04:52:47;17.00;99.90
28484;DHT22;15704;48.834;8.736;2022-10-19T04:55:13;17.00;99.90
28484;DHT22;15704;48.834;8.736;2022-10-19T04:57:38;16.90;99.90
28484;DHT22;15704;48.834;8.736;2022-10-19T05:00:04;16.90;99.90
28484;DHT22;15704;48.834;8.736;2022-10-19T05:02:30;17.00;99.90
28484;DHT22;15704;48.834;8.736;2022-10-19T05:04:56;17.00;99.90
28484;DHT22;15704;48.834;8.736;2022-10-19T05:07:21;16.90;99.90
28484;DHT22;15704;48.834;8.736;2022-10-19T05:09:47;17.00;99.90
28484;DHT22;15704;48.834;8.736;2022-10-19T05:12:12;17.00;99.90
28484;DHT22;15704;48.834;8.736;2022-10-19T05:14:38;17.00;99.90
28484;DHT22;15704;48.834;8.736;2022-10-19T05:17:03;17.00;99.90
28484;DHT22;15704;48.834;8.736;2022-10-19T05:19:29;17.00;99.90
28484;DHT22;15704;48.834;8.736;2022-10-19T05:21:55;17.00;99.90
28484;DHT22;15704;48.834;8.736;2022-10-19T05:24:20;17.00;99.90
28484;DHT22;15704;48.834;8.736;2022-10-19T05:26:46;16.90;99.90
28484;DHT22;15704;48.834;8.736;2022-10-19T05:29:12;17.00;99.90
28484;DHT22;15704;48.834;8.736;2022-10-19T05:31:38;17.00;99.90
28484;DHT22;15704;48.834;8.736;2022-10-19T05:34:04;17.00;99.90
28484;DHT22;15704;48.834;8.736;2022-10-19T05:36:30;17.00;99.90
28484;DHT22;15704;48.834;8.736;2022-10-19T05:39:01;16.90;99.90
28484;DHT22;15704;48.834;8.736;2022-10-19T05:41:27;17.00;99.90
28484;DHT22;15704;48.834;8.736;2022-10-19T05:43:57;16.90;99.90
28484;DHT22;15704;48.834;8.736;2022-10-19T05:46:24;16.90;99.90
28484;DHT22;15704;48.834;8.736;2022-10-19T05:48:50;17.00;99.90
28484;DHT22;15704;48.834;8.736;2022-10-19T05:51:19;17.00;99.90
28484;DHT22;15704;48.834;8.736;2022-10-19T05:53:45;16.90;99.90
28484;DHT22;15704;48.834;8.736;2022-10-19T05:56:19;17.00;99.90
28484;DHT22;15704;48.834;8.736;2022-10-19T05:58:46;17.00;99.90
28484;DHT22;15704;48.834;8.736;2022-10-19T06:01:12;17.00;99.90
28484;DHT22;15704;48.834;8.736;2022-10-19T06:03:38;17.00;99.90
28484;DHT22;15704;48.834;8.736;2022-10-19T06:06:06;16.90;99.90
28484;DHT22;15704;48.834;8.736;2022-10-19T06:08:32;16.90;99.90
28484;DHT22;15704;48.834;8.736;2022-10-19T06:11:08;17.00;99.90
28484;DHT22;15704;48.834;8.736;2022-10-19T06:13:35;17.00;99.90
28484;DHT22;15704;48.834;8.736;2022-10-19T06:16:01;17.00;99.90
28484;DHT22;15704;48.834;8.736;2022-10-19T06:18:27;17.00;99.90
28484;DHT22;15704;48.834;8.736;2022-10-19T06:20:52;17.00;99.90
28484;DHT22;15704;48.834;8.736;2022-10-19T06:23:18;17.00;99.90
28484;DHT22;15704;48.834;8.736;2022-10-19T06:25:43;17.00;99.90
28484;DHT22;15704;48.834;8.736;2022-10-19T06:28:09;17.00;99.90
28484;DHT22;15704;48.834;8.736;2022-10-19T06:30:39;17.10;99.90
28484;DHT22;15704;48.834;8.736;2022-10-19T06:33:05;17.00;99.90
28484;DHT22;15704;48.834;8.736;2022-10-19T06:35:30;17.00;99.90
28484;DHT22;15704;48.834;8.736;2022-10-19T06:37:56;17.10;99.90
28484;DHT22;15704;48.834;8.736;2022-10-19T06:40:23;17.00;99.90
28484;DHT22;15704;48.834;8.736;2022-10-19T06:42:49;17.10;99.90
28484;DHT22;15704;48.834;8.736;2022-10-19T06:45:15;17.10;99.90
28484;DHT22;15704;48.834;8.736;2022-10-19T06:47:40;17.10;99.90
28484;DHT22;15704;48.834;8.736;2022-10-19T06:50:06;17.10;99.90
28484;DHT22;15704;48.834;8.736;2022-10-19T06:52:33;17.10;99.90
28484;DHT22;15704;48.834;8.736;2022-10-19T06:54:59;17.10;99.90
28484;DHT22;15704;48.834;8.736;2022-10-19T06:57:24;17.10;99.90
28484;DHT22;15704;48.834;8.736;2022-10-19T06:59:50;17.10;99.90
28484;DHT22;15704;48.834;8.736;2022-10-19T07:02:16;17.10;99.90
28484;DHT22;15704;48.834;8.736;2022-10-19T07:04:41;17.10;99.90
28484;DHT22;15704;48.834;8.736;2022-10-19T07:07:07;17.10;99.90
28484;DHT22;15704;48.834;8.736;2022-10-19T07:09:33;17.10;99.90
28484;DHT22;15704;48.834;8.736;2022-10-19T07:11:59;17.20;99.90
28484;DHT22;15704;48.834;8.736;2022-10-19T07:14:24;17.20;99.90
28484;DHT22;15704;48.834;8.736;2022-10-19T07:16:53;17.20;99.90
28484;DHT22;15704;48.834;8.736;2022-10-19T07:19:19;17.20;99.90
28484;DHT22;15704;48.834;8.736;2022-10-19T07:21:45;17.20;99.90
28484;DHT22;15704;48.834;8.736;2022-10-19T07:24:14;17.20;99.90
28484;DHT22;15704;48.834;8.736;2022-10-19T07:26:39;17.20;99.90
28484;DHT22;15704;48.834;8.736;2022-10-19T07:29:05;17.20;99.90
28484;DHT22;15704;48.834;8.736;2022-10-19T07:31:31;17.20;99.90
28484;DHT22;15704;48.834;8.736;2022-10-19T07:33:59;17.20;99.90
28484;DHT22;15704;48.834;8.736;2022-10-19T07:36:26;17.30;99.90
28484;DHT22;15704;48.834;8.736;2022-10-19T07:38:52;17.30;99.90
28484;DHT22;15704;48.834;8.736;2022-10-19T07:41:20;17.30;99.90
28484;DHT22;15704;48.834;8.736;2022-10-19T07:43:48;17.30;99.90
28484;DHT22;15704;48.834;8.736;2022-10-19T07:46:25;17.30;99.90
28484;DHT22;15704;48.834;8.736;2022-10-19T07:48:51;17.40;99.90
28484;DHT22;15704;48.834;8.736;2022-10-19T07:51:18;17.40;99.90
28484;DHT22;15704;48.834;8.736;2022-10-19T07:53:44;17.50;99.90
28484;DHT22;15704;48.834;8.736;2022-10-19T07:56:12;17.60;99.90
28484;DHT22;15704;48.834;8.736;2022-10-19T07:58:38;17.70;99.90
28484;DHT22;15704;48.834;8.736;2022-10-19T08:01:09;17.70;99.90
28484;DHT22;15704;48.834;8.736;2022-10-19T08:03:36;17.80;99.90
28484;DHT22;15704;48.834;8.736;2022-10-19T08:06:07;17.80;99.90
28484;DHT22;15704;48.834;8.736;2022-10-19T08:08:34;17.80;99.90
28484;DHT22;15704;48.834;8.736;2022-10-19T08:11:29;17.80;99.90
28484;DHT22;15704;48.834;8.736;2022-10-19T08:13:56;17.80;99.90
28484;DHT22;15704;48.834;8.736;2022-10-19T08:16:35;17.80;99.90
28484;DHT22;15704;48.834;8.736;2022-10-19T08:19:19;17.80;99.90
28484;DHT22;15704;48.834;8.736;2022-10-19T08:21:47;17.80;99.90
28484;DHT22;15704;48.834;8.736;2022-10-19T08:24:14;17.80;99.90
28484;DHT22;15704;48.834;8.736;2022-10-19T08:26:40;17.70;99.90
28484;DHT22;15704;48.834;8.736;2022-10-19T08:29:12;17.70;99.90
28484;DHT22;15704;48.834;8.736;2022-10-19T08:31:38;17.70;99.90
28484;DHT22;15704;48.834;8.736;2022-10-19T08:34:04;17.80;99.90
28484;DHT22;15704;48.834;8.736;2022-10-19T08:36:30;17.80;99.90
28484;DHT22;15704;48.834;8.736;2022-10-19T08:38:57;17.80;99.90
28484;DHT22;15704;48.834;8.736;2022-10-19T08:44:15;17.80;99.90
28484;DHT22;15704;48.834;8.736;2022-10-19T08:49:24;17.90;99.90
28484;DHT22;15704;48.834;8.736;2022-10-19T08:51:58;17.90;99.90
28484;DHT22;15704;48.834;8.736;2022-10-19T08:54:42;17.90;99.90
28484;DHT22;15704;48.834;8.736;2022-10-19T08:57:51;17.90;99.90
28484;DHT22;15704;48.834;8.736;2022-10-19T09:03:04;18.00;99.90
28484;DHT22;15704;48.834;8.736;2022-10-19T09:05:46;18.00;99.90
28484;DHT22;15704;48.834;8.736;2022-10-19T09:08:13;18.00;99.90
28484;DHT22;15704;48.834;8.736;2022-10-19T09:10:42;18.10;99.90
28484;DHT22;15704;48.834;8.736;2022-10-19T09:13:15;18.10;99.90
28484;DHT22;15704;48.834;8.736;2022-10-19T09:15:44;18.10;99.90
28484;DHT22;15704;48.834;8.736;2022-10-19T09:18:22;18.20;99.90
28484;DHT22;15704;48.834;8.736;2022-10-19T09:21:23;18.30;99.90
28484;DHT22;15704;48.834;8.736;2022-10-19T09:23:56;18.30;99.90
28484;DHT22;15704;48.834;8.736;2022-10-19T09:26:28;18.40;99.90
28484;DHT22;15704;48.834;8.736;2022-10-19T09:31:32;18.30;99.90
28484;DHT22;15704;48.834;8.736;2022-10-19T09:34:09;18.20;99.90
28484;DHT22;15704;48.834;8.736;2022-10-19T09:36:40;18.20;99.90
28484;DHT22;15704;48.834;8.736;2022-10-19T09:39:11;18.10;99.90
28484;DHT22;15704;48.834;8.736;2022-10-19T09:41:48;18.00;99.90
28484;DHT22;15704;48.834;8.736;2022-10-19T09:44:14;18.00;99.90
28484;DHT22;15704;48.834;8.736;2022-10-19T09:46:47;18.00;99.90
28484;DHT22;15704;48.834;8.736;2022-10-19T09:49:17;18.00;99.90
28484;DHT22;15704;48.834;8.736;2022-10-19T09:54:35;18.00;99.90
28484;DHT22;15704;48.834;8.736;2022-10-19T09:57:02;18.00;99.90
28484;DHT22;15704;48.834;8.736;2022-10-19T09:59:34;18.00;99.90
28484;DHT22;15704;48.834;8.736;2022-10-19T10:02:17;18.00;99.90
28484;DHT22;15704;48.834;8.736;2022-10-19T10:04:55;18.00;99.90
28484;DHT22;15704;48.834;8.736;2022-10-19T10:07:26;18.00;99.90
28484;DHT22;15704;48.834;8.736;2022-10-19T10:09:53;18.10;99.90
28484;DHT22;15704;48.834;8.736;2022-10-19T10:12:18;18.10;99.90
28484;DHT22;15704;48.834;8.736;2022-10-19T10:14:48;18.10;99.90
28484;DHT22;15704;48.834;8.736;2022-10-19T10:17:20;18.20;99.90
28484;DHT22;15704;48.834;8.736;2022-10-19T10:22:30;18.50;99.90
28484;DHT22;15704;48.834;8.736;2022-10-19T10:24:56;18.60;99.90
28484;DHT22;15704;48.834;8.736;2022-10-19T10:27:34;18.80;99.90
28484;DHT22;15704;48.834;8.736;2022-10-19T10:30:08;18.90;99.90
28484;DHT22;15704;48.834;8.736;2022-10-19T10:32:38;19.00;99.90
28484;DHT22;15704;48.834;8.736;2022-10-19T10:35:28;19.00;99.90
28484;DHT22;15704;48.834;8.736;2022-10-19T10:38:07;19.00;99.90
28484;DHT22;15704;48.834;8.736;2022-10-19T10:40:34;19.00;99.90
28484;DHT22;15704;48.834;8.736;2022-10-19T10:43:30;19.00;99.90
28484;DHT22;15704;48.834;8.736;2022-10-19T10:48:36;19.00;99.90
28484;DHT22;15704;48.834;8.736;2022-10-19T10:51:02;18.90;99.90
28484;DHT22;15704;48.834;8.736;2022-10-19T10:53:40;19.00;99.90
28484;DHT22;15704;48.834;8.736;2022-10-19T10:56:24;18.90;99.90
28484;DHT22;15704;48.834;8.736;2022-10-19T10:58:57;18.90;99.90
28484;DHT22;15704;48.834;8.736;2022-10-19T11:01:35;18.90;99.90
28484;DHT22;15704;48.834;8.736;2022-10-19T11:04:11;18.90;99.90
28484;DHT22;15704;48.834;8.736;2022-10-19T11:06:44;18.90;99.90
28484;DHT22;15704;48.834;8.736;2022-10-19T11:11:50;18.80;99.90
28484;DHT22;15704;48.834;8.736;2022-10-19T11:14:36;18.80;99.90
28484;DHT22;15704;48.834;8.736;2022-10-19T11:17:13;18.80;99.90
28484;DHT22;15704;48.834;8.736;2022-10-19T11:19:43;18.80;99.90
28484;DHT22;15704;48.834;8.736;2022-10-19T11:30:17;18.60;99.90
28484;DHT22;15704;48.834;8.736;2022-10-19T11:32:57;18.60;99.90
28484;DHT22;15704;48.834;8.736;2022-10-19T11:38:03;18.60;99.90
28484;DHT22;15704;48.834;8.736;2022-10-19T11:48:43;18.50;99.90
28484;DHT22;15704;48.834;8.736;2022-10-19T11:51:20;18.60;99.90
28484;DHT22;15704;48.834;8.736;2022-10-19T11:56:35;18.60;99.90
28484;DHT22;15704;48.834;8.736;2022-10-19T11:59:13;18.70;99.90
28484;DHT22;15704;48.834;8.736;2022-10-19T12:14:55;18.80;99.90
28484;DHT22;15704;48.834;8.736;2022-10-19T12:17:27;18.80;99.90
28484;DHT22;15704;48.834;8.736;2022-10-19T12:19:57;18.80;99.90
28484;DHT22;15704;48.834;8.736;2022-10-19T12:22:28;18.80;99.90
28484;DHT22;15704;48.834;8.736;2022-10-19T12:24:54;18.80;99.90
28484;DHT22;15704;48.834;8.736;2022-10-19T12:27:38;18.70;99.90
28484;DHT22;15704;48.834;8.736;2022-10-19T12:30:14;18.90;99.90
28484;DHT22;15704;48.834;8.736;2022-10-19T12:41:18;18.70;99.90
28484;DHT22;15704;48.834;8.736;2022-10-19T12:51:53;18.80;99.90
28484;DHT22;15704;48.834;8.736;2022-10-19T12:54:31;18.80;99.90
28484;DHT22;15704;48.834;8.736;2022-10-19T12:56:59;18.90;99.90
28484;DHT22;15704;48.834;8.736;2022-10-19T12:59:31;18.90;99.90
28484;DHT22;15704;48.834;8.736;2022-10-19T13:01:58;19.00;99.90
28484;DHT22;15704;48.834;8.736;2022-10-19T13:04:28;18.90;99.90
28484;DHT22;15704;48.834;8.736;2022-10-19T13:09:34;19.00;99.90
28484;DHT22;15704;48.834;8.736;2022-10-19T13:22:45;19.00;99.90
28484;DHT22;15704;48.834;8.736;2022-10-19T13:33:43;19.30;99.90
28484;DHT22;15704;48.834;8.736;2022-10-19T13:36:09;19.30;99.90
28484;DHT22;15704;48.834;8.736;2022-10-19T13:41:20;19.30;99.90
28484;DHT22;15704;48.834;8.736;2022-10-19T13:55:42;19.30;99.90
28484;DHT22;15704;48.834;8.736;2022-10-19T14:01:15;19.30;99.90
28484;DHT22;15704;48.834;8.736;2022-10-19T14:06:15;19.30;99.90
28484;DHT22;15704;48.834;8.736;2022-10-19T14:11:37;19.10;99.90
28484;DHT22;15704;48.834;8.736;2022-10-19T14:19:12;18.90;99.90
28484;DHT22;15704;48.834;8.736;2022-10-19T14:21:38;18.80;99.90
28484;DHT22;15704;48.834;8.736;2022-10-19T14:24:18;18.80;99.90
28484;DHT22;15704;48.834;8.736;2022-10-19T14:26:45;18.70;99.90
28484;DHT22;15704;48.834;8.736;2022-10-19T14:29:11;18.70;99.90
28484;DHT22;15704;48.834;8.736;2022-10-19T14:31:37;18.60;99.90
28484;DHT22;15704;48.834;8.736;2022-10-19T14:34:06;18.60;99.90
28484;DHT22;15704;48.834;8.736;2022-10-19T14:36:38;18.60;99.90
28484;DHT22;15704;48.834;8.736;2022-10-19T14:39:10;18.50;99.90
28484;DHT22;15704;48.834;8.736;2022-10-19T14:41:45;18.50;99.90
28484;DHT22;15704;48.834;8.736;2022-10-19T14:46:52;18.50;99.90
28484;DHT22;15704;48.834;8.736;2022-10-19T14:49:18;18.40;99.90
28484;DHT22;15704;48.834;8.736;2022-10-19T14:51:54;18.40;99.90
28484;DHT22;15704;48.834;8.736;2022-10-19T14:54:24;18.40;99.90
28484;DHT22;15704;48.834;8.736;2022-10-19T15:01:57;18.40;99.90
28484;DHT22;15704;48.834;8.736;2022-10-19T15:04:36;18.40;99.90
28484;DHT22;15704;48.834;8.736;2022-10-19T15:07:19;18.30;99.90
28484;DHT22;15704;48.834;8.736;2022-10-19T15:09:57;18.30;99.90
28484;DHT22;15704;48.834;8.736;2022-10-19T15:12:38;18.30;99.90
28484;DHT22;15704;48.834;8.736;2022-10-19T15:15:21;18.30;99.90
28484;DHT22;15704;48.834;8.736;2022-10-19T15:17:55;18.30;99.90
28484;DHT22;15704;48.834;8.736;2022-10-19T15:20:22;18.30;99.90
28484;DHT22;15704;48.834;8.736;2022-10-19T15:22:48;18.30;99.90
28484;DHT22;15704;48.834;8.736;2022-10-19T15:27:41;18.30;99.90
28484;DHT22;15704;48.834;8.736;2022-10-19T15:30:22;18.20;99.90
28484;DHT22;15704;48.834;8.736;2022-10-19T15:35:29;18.20;99.90
28484;DHT22;15704;48.834;8.736;2022-10-19T15:38:02;18.20;99.90
28484;DHT22;15704;48.834;8.736;2022-10-19T15:40:32;18.20;99.90
28484;DHT22;15704;48.834;8.736;2022-10-19T15:42:58;18.20;99.90
28484;DHT22;15704;48.834;8.736;2022-10-19T15:50:47;18.10;99.90
28484;DHT22;15704;48.834;8.736;2022-10-19T15:53:16;18.10;99.90
28484;DHT22;15704;48.834;8.736;2022-10-19T15:55:42;18.10;99.90
28484;DHT22;15704;48.834;8.736;2022-10-19T15:58:09;18.10;99.90
28484;DHT22;15704;48.834;8.736;2022-10-19T16:00:36;18.00;99.90
28484;DHT22;15704;48.834;8.736;2022-10-19T16:03:01;18.00;99.90
28484;DHT22;15704;48.834;8.736;2022-10-19T16:05:28;18.00;99.90
28484;DHT22;15704;48.834;8.736;2022-10-19T16:07:54;17.90;99.90
28484;DHT22;15704;48.834;8.736;2022-10-19T16:10:24;17.90;99.90
28484;DHT22;15704;48.834;8.736;2022-10-19T16:12:50;17.90;99.90
28484;DHT22;15704;48.834;8.736;2022-10-19T16:15:18;17.90;99.90
28484;DHT22;15704;48.834;8.736;2022-10-19T16:17:52;17.80;99.90
28484;DHT22;15704;48.834;8.736;2022-10-19T16:20:18;17.80;99.90
28484;DHT22;15704;48.834;8.736;2022-10-19T16:22:44;17.70;99.90
28484;DHT22;15704;48.834;8.736;2022-10-19T16:25:11;17.80;99.90
28484;DHT22;15704;48.834;8.736;2022-10-19T16:27:37;17.70;99.90
28484;DHT22;15704;48.834;8.736;2022-10-19T16:30:03;17.60;99.90
28484;DHT22;15704;48.834;8.736;2022-10-19T16:32:29;17.70;99.90
28484;DHT22;15704;48.834;8.736;2022-10-19T16:34:55;17.60;99.90
28484;DHT22;15704;48.834;8.736;2022-10-19T16:37:20;17.60;99.90
28484;DHT22;15704;48.834;8.736;2022-10-19T16:39:46;17.50;99.90
28484;DHT22;15704;48.834;8.736;2022-10-19T16:42:12;17.50;99.90
28484;DHT22;15704;48.834;8.736;2022-10-19T16:44:37;17.50;99.90
28484;DHT22;15704;48.834;8.736;2022-10-19T16:47:03;17.50;99.90
28484;DHT22;15704;48.834;8.736;2022-10-19T16:49:30;17.40;99.90
28484;DHT22;15704;48.834;8.736;2022-10-19T16:51:56;17.40;99.90
28484;DHT22;15704;48.834;8.736;2022-10-19T16:54:22;17.40;99.90
28484;DHT22;15704;48.834;8.736;2022-10-19T16:56:47;17.40;99.90
28484;DHT22;15704;48.834;8.736;2022-10-19T16:59:15;17.40;99.90
28484;DHT22;15704;48.834;8.736;2022-10-19T17:01:42;17.40;99.90
28484;DHT22;15704;48.834;8.736;2022-10-19T17:04:10;17.30;99.90
28484;DHT22;15704;48.834;8.736;2022-10-19T17:06:36;17.30;99.90
28484;DHT22;15704;48.834;8.736;2022-10-19T17:09:02;17.30;99.90
28484;DHT22;15704;48.834;8.736;2022-10-19T17:11:30;17.30;99.90
28484;DHT22;15704;48.834;8.736;2022-10-19T17:13:59;17.20;99.90
28484;DHT22;15704;48.834;8.736;2022-10-19T17:16:27;17.20;99.90
28484;DHT22;15704;48.834;8.736;2022-10-19T17:18:54;17.20;99.90
28484;DHT22;15704;48.834;8.736;2022-10-19T17:21:29;17.20;99.90
28484;DHT22;15704;48.834;8.736;2022-10-19T17:23:58;17.10;99.90
28484;DHT22;15704;48.834;8.736;2022-10-19T17:26:32;17.10;99.90
28484;DHT22;15704;48.834;8.736;2022-10-19T17:28:59;17.10;99.90
28484;DHT22;15704;48.834;8.736;2022-10-19T17:31:25;17.10;99.90
28484;DHT22;15704;48.834;8.736;2022-10-19T17:33:51;17.10;99.90
28484;DHT22;15704;48.834;8.736;2022-10-19T17:36:20;17.10;99.90
28484;DHT22;15704;48.834;8.736;2022-10-19T17:38:47;17.00;99.90
28484;DHT22;15704;48.834;8.736;2022-10-19T17:41:17;17.00;99.90
28484;DHT22;15704;48.834;8.736;2022-10-19T17:43:45;17.00;99.90
28484;DHT22;15704;48.834;8.736;2022-10-19T17:46:14;17.00;99.90
28484;DHT22;15704;48.834;8.736;2022-10-19T17:48:41;17.00;99.90
28484;DHT22;15704;48.834;8.736;2022-10-19T17:51:14;17.00;99.90
28484;DHT22;15704;48.834;8.736;2022-10-19T17:53:42;16.90;99.90
28484;DHT22;15704;48.834;8.736;2022-10-19T17:56:09;16.90;99.90
28484;DHT22;15704;48.834;8.736;2022-10-19T17:58:35;16.90;99.90
28484;DHT22;15704;48.834;8.736;2022-10-19T18:01:03;16.90;99.90
28484;DHT22;15704;48.834;8.736;2022-10-19T18:03:30;16.90;99.90
28484;DHT22;15704;48.834;8.736;2022-10-19T18:06:12;16.90;99.90
28484;DHT22;15704;48.834;8.736;2022-10-19T18:08:40;16.90;99.90
28484;DHT22;15704;48.834;8.736;2022-10-19T18:13:34;16.90;99.90
28484;DHT22;15704;48.834;8.736;2022-10-19T18:16:01;16.90;99.90
28484;DHT22;15704;48.834;8.736;2022-10-19T18:18:28;16.90;99.90
28484;DHT22;15704;48.834;8.736;2022-10-19T18:20:55;16.80;99.90
28484;DHT22;15704;48.834;8.736;2022-10-19T18:23:20;16.80;99.90
28484;DHT22;15704;48.834;8.736;2022-10-19T18:25:46;16.80;99.90
28484;DHT22;15704;48.834;8.736;2022-10-19T18:28:14;16.80;99.90
28484;DHT22;15704;48.834;8.736;2022-10-19T18:30:39;16.80;99.90
28484;DHT22;15704;48.834;8.736;2022-10-19T18:33:05;16.80;99.90
28484;DHT22;15704;48.834;8.736;2022-10-19T18:35:35;16.80;99.90
28484;DHT22;15704;48.834;8.736;2022-10-19T18:38:02;16.80;99.90